sensor_id;sensor_type;location;lat;lon;timestamp;P1;durP1;ratioP1;P2;durP2;ratioP2
11996;SDS011;6058;48.704;9.474;2022-08-24T00:00:06;3.55;;;2.70;;
11996;SDS011;6058;48.704;9.474;2022-08-24T00:02:34;3.33;;;2.70;;
11996;SDS011;6058;48.704;9.474;2022-08-24T00:05:01;5.50;;;3.20;;
11996;SDS011;6058;48.704;9.474;2022-08-24T00:07:28;3.23;;;2.80;;
11996;SDS011;6058;48.704;9.474;2022-08-24T00:09:56;2.90;;;2.40;;
11996;SDS011;6058;48.704;9.474;2022-08-24T00:12:25;5.83;;;2.50;;
11996;SDS011;6058;48.704;9.474;2022-08-24T00:14:52;2.90;;;2.70;;
11996;SDS011;6058;48.704;9.474;2022-08-24T00:17:19;3.90;;;2.70;;
11996;SDS011;6058;48.704;9.474;2022-08-24T00:19:47;2.93;;;2.73;;
11996;SDS011;6058;48.704;9.474;2022-08-24T00:22:14;2.57;;;2.37;;
11996;SDS011;6058;48.704;9.474;2022-08-24T00:24:41;4.40;;;2.83;;
11996;SDS011;6058;48.704;9.474;2022-08-24T00:27:08;2.40;;;2.20;;
11996;SDS011;6058;48.704;9.474;2022-08-24T00:29:37;3.30;;;3.03;;
11996;SDS011;6058;48.704;9.474;2022-08-24T00:32:05;2.70;;;2.50;;
11996;SDS011;6058;48.704;9.474;2022-08-24T00:34:32;4.40;;;2.73;;
11996;SDS011;6058;48.704;9.474;2022-08-24T00:37:00;3.30;;;3.00;;
11996;SDS011;6058;48.704;9.474;2022-08-24T00:39:27;2.90;;;2.70;;
11996;SDS011;6058;48.704;9.474;2022-08-24T00:41:54;3.70;;;3.37;;
11996;SDS011;6058;48.704;9.474;2022-08-24T00:44:21;2.90;;;2.70;;
11996;SDS011;6058;48.704;9.474;2022-08-24T00:46:51;2.73;;;2.43;;
11996;SDS011;6058;48.704;9.474;2022-08-24T00:49:20;6.53;;;3.57;;
11996;SDS011;6058;48.704;9.474;2022-08-24T00:51:50;3.90;;;3.20;;
11996;SDS011;6058;48.704;9.474;2022-08-24T00:54:19;3.30;;;3.00;;
11996;SDS011;6058;48.704;9.474;2022-08-24T00:56:48;3.07;;;2.70;;
11996;SDS011;6058;48.704;9.474;2022-08-24T00:59:19;3.03;;;2.73;;
11996;SDS011;6058;48.704;9.474;2022-08-24T01:01:47;4.90;;;3.23;;
11996;SDS011;6058;48.704;9.474;2022-08-24T01:04:17;3.27;;;2.83;;
11996;SDS011;6058;48.704;9.474;2022-08-24T01:06:45;4.60;;;3.33;;
11996;SDS011;6058;48.704;9.474;2022-08-24T01:09:13;3.20;;;2.67;;
11996;SDS011;6058;48.704;9.474;2022-08-24T01:11:41;4.03;;;2.57;;
11996;SDS011;6058;48.704;9.474;2022-08-24T01:14:08;3.83;;;3.07;;
11996;SDS011;6058;48.704;9.474;2022-08-24T01:16:35;2.97;;;2.77;;
11996;SDS011;6058;48.704;9.474;2022-08-24T01:19:24;3.10;;;2.90;;
11996;SDS011;6058;48.704;9.474;2022-08-24T01:22:00;5.40;;;2.80;;
11996;SDS011;6058;48.704;9.474;2022-08-24T01:24:31;2.90;;;2.70;;
11996;SDS011;6058;48.704;9.474;2022-08-24T01:27:00;3.20;;;2.90;;
11996;SDS011;6058;48.704;9.474;2022-08-24T01:29:28;4.37;;;3.17;;
11996;SDS011;6058;48.704;9.474;2022-08-24T01:31:56;3.90;;;2.67;;
11996;SDS011;6058;48.704;9.474;2022-08-24T01:34:24;3.27;;;2.97;;
11996;SDS011;6058;48.704;9.474;2022-08-24T01:36:52;2.77;;;2.57;;
11996;SDS011;6058;48.704;9.474;2022-08-24T01:39:21;3.23;;;2.93;;
11996;SDS011;6058;48.704;9.474;2022-08-24T01:41:51;3.00;;;2.77;;
11996;SDS011;6058;48.704;9.474;2022-08-24T01:44:19;2.73;;;2.57;;
11996;SDS011;6058;48.704;9.474;2022-08-24T01:46:47;3.47;;;2.60;;
11996;SDS011;6058;48.704;9.474;2022-08-24T01:49:16;3.20;;;2.90;;
11996;SDS011;6058;48.704;9.474;2022-08-24T01:51:43;3.40;;;2.50;;
11996;SDS011;6058;48.704;9.474;2022-08-24T01:54:11;3.10;;;2.90;;
11996;SDS011;6058;48.704;9.474;2022-08-24T01:56:38;4.60;;;2.70;;
11996;SDS011;6058;48.704;9.474;2022-08-24T01:59:06;3.50;;;2.67;;
11996;SDS011;6058;48.704;9.474;2022-08-24T02:01:37;4.27;;;2.47;;
11996;SDS011;6058;48.704;9.474;2022-08-24T02:04:06;4.43;;;3.13;;
11996;SDS011;6058;48.704;9.474;2022-08-24T02:06:33;4.70;;;3.63;;
11996;SDS011;6058;48.704;9.474;2022-08-24T02:09:01;2.97;;;2.77;;
11996;SDS011;6058;48.704;9.474;2022-08-24T02:11:28;3.47;;;2.80;;
11996;SDS011;6058;48.704;9.474;2022-08-24T02:13:55;5.20;;;3.33;;
11996;SDS011;6058;48.704;9.474;2022-08-24T02:16:24;3.77;;;3.17;;
11996;SDS011;6058;48.704;9.474;2022-08-24T02:18:51;3.80;;;3.00;;
11996;SDS011;6058;48.704;9.474;2022-08-24T02:21:18;6.23;;;3.07;;
11996;SDS011;6058;48.704;9.474;2022-08-24T02:23:46;8.60;;;3.37;;
11996;SDS011;6058;48.704;9.474;2022-08-24T02:26:13;3.37;;;2.80;;
11996;SDS011;6058;48.704;9.474;2022-08-24T02:28:41;4.27;;;2.93;;
11996;SDS011;6058;48.704;9.474;2022-08-24T02:31:09;2.80;;;2.60;;
11996;SDS011;6058;48.704;9.474;2022-08-24T02:33:37;10.50;;;3.00;;
11996;SDS011;6058;48.704;9.474;2022-08-24T02:36:05;4.57;;;3.07;;
11996;SDS011;6058;48.704;9.474;2022-08-24T02:38:32;2.90;;;2.70;;
11996;SDS011;6058;48.704;9.474;2022-08-24T02:40:59;3.47;;;3.00;;
11996;SDS011;6058;48.704;9.474;2022-08-24T02:43:27;2.67;;;2.47;;
11996;SDS011;6058;48.704;9.474;2022-08-24T02:45:54;5.90;;;2.90;;
11996;SDS011;6058;48.704;9.474;2022-08-24T02:48:21;3.40;;;3.03;;
11996;SDS011;6058;48.704;9.474;2022-08-24T02:50:51;3.10;;;2.80;;
11996;SDS011;6058;48.704;9.474;2022-08-24T02:53:19;3.63;;;3.30;;
11996;SDS011;6058;48.704;9.474;2022-08-24T02:55:46;2.80;;;2.60;;
11996;SDS011;6058;48.704;9.474;2022-08-24T02:58:14;3.30;;;2.77;;
11996;SDS011;6058;48.704;9.474;2022-08-24T03:00:42;3.20;;;2.90;;
11996;SDS011;6058;48.704;9.474;2022-08-24T03:03:10;3.77;;;3.00;;
11996;SDS011;6058;48.704;9.474;2022-08-24T03:05:37;2.90;;;2.60;;
11996;SDS011;6058;48.704;9.474;2022-08-24T03:08:06;3.20;;;2.90;;
11996;SDS011;6058;48.704;9.474;2022-08-24T03:10:33;2.83;;;2.60;;
11996;SDS011;6058;48.704;9.474;2022-08-24T03:13:00;2.80;;;2.57;;
11996;SDS011;6058;48.704;9.474;2022-08-24T03:15:27;3.20;;;2.67;;
11996;SDS011;6058;48.704;9.474;2022-08-24T03:17:55;2.97;;;2.60;;
11996;SDS011;6058;48.704;9.474;2022-08-24T03:20:23;3.00;;;2.70;;
11996;SDS011;6058;48.704;9.474;2022-08-24T03:22:51;3.37;;;2.50;;
11996;SDS011;6058;48.704;9.474;2022-08-24T03:25:19;3.17;;;2.87;;
11996;SDS011;6058;48.704;9.474;2022-08-24T03:27:48;3.70;;;2.80;;
11996;SDS011;6058;48.704;9.474;2022-08-24T03:30:16;3.70;;;2.73;;
11996;SDS011;6058;48.704;9.474;2022-08-24T03:32:44;2.90;;;2.53;;
11996;SDS011;6058;48.704;9.474;2022-08-24T03:35:11;3.07;;;2.80;;
11996;SDS011;6058;48.704;9.474;2022-08-24T03:37:39;2.87;;;2.63;;
11996;SDS011;6058;48.704;9.474;2022-08-24T03:40:07;2.93;;;2.63;;
11996;SDS011;6058;48.704;9.474;2022-08-24T03:42:36;2.73;;;2.53;;
11996;SDS011;6058;48.704;9.474;2022-08-24T03:45:03;3.10;;;2.80;;
11996;SDS011;6058;48.704;9.474;2022-08-24T03:47:31;3.13;;;2.90;;
11996;SDS011;6058;48.704;9.474;2022-08-24T03:49:58;2.80;;;2.60;;
11996;SDS011;6058;48.704;9.474;2022-08-24T03:52:25;3.03;;;2.60;;
11996;SDS011;6058;48.704;9.474;2022-08-24T03:54:52;2.80;;;2.40;;
11996;SDS011;6058;48.704;9.474;2022-08-24T03:57:19;3.00;;;2.80;;
11996;SDS011;6058;48.704;9.474;2022-08-24T03:59:48;2.47;;;2.37;;
11996;SDS011;6058;48.704;9.474;2022-08-24T04:02:15;2.90;;;2.70;;
11996;SDS011;6058;48.704;9.474;2022-08-24T04:04:42;5.37;;;2.77;;
11996;SDS011;6058;48.704;9.474;2022-08-24T04:07:10;3.00;;;2.70;;
11996;SDS011;6058;48.704;9.474;2022-08-24T04:09:37;3.10;;;2.80;;
11996;SDS011;6058;48.704;9.474;2022-08-24T04:12:04;3.10;;;2.63;;
11996;SDS011;6058;48.704;9.474;2022-08-24T04:14:31;3.13;;;2.90;;
11996;SDS011;6058;48.704;9.474;2022-08-24T04:17:00;2.93;;;2.43;;
11996;SDS011;6058;48.704;9.474;2022-08-24T04:19:28;3.07;;;2.80;;
11996;SDS011;6058;48.704;9.474;2022-08-24T04:21:55;3.03;;;2.83;;
11996;SDS011;6058;48.704;9.474;2022-08-24T04:24:23;3.07;;;2.60;;
11996;SDS011;6058;48.704;9.474;2022-08-24T04:26:50;2.33;;;2.17;;
11996;SDS011;6058;48.704;9.474;2022-08-24T04:29:18;2.80;;;2.40;;
11996;SDS011;6058;48.704;9.474;2022-08-24T04:31:45;2.70;;;2.43;;
11996;SDS011;6058;48.704;9.474;2022-08-24T04:34:14;2.63;;;2.43;;
11996;SDS011;6058;48.704;9.474;2022-08-24T04:36:43;6.20;;;3.00;;
11996;SDS011;6058;48.704;9.474;2022-08-24T04:39:10;3.37;;;3.00;;
11996;SDS011;6058;48.704;9.474;2022-08-24T04:41:37;2.77;;;2.60;;
11996;SDS011;6058;48.704;9.474;2022-08-24T04:44:06;2.90;;;2.63;;
11996;SDS011;6058;48.704;9.474;2022-08-24T04:46:33;3.70;;;2.60;;
11996;SDS011;6058;48.704;9.474;2022-08-24T04:49:00;2.60;;;2.40;;
11996;SDS011;6058;48.704;9.474;2022-08-24T04:51:29;3.70;;;2.73;;
11996;SDS011;6058;48.704;9.474;2022-08-24T04:53:57;2.97;;;2.77;;
11996;SDS011;6058;48.704;9.474;2022-08-24T04:56:24;2.70;;;2.50;;
11996;SDS011;6058;48.704;9.474;2022-08-24T04:58:52;2.70;;;2.50;;
11996;SDS011;6058;48.704;9.474;2022-08-24T05:01:21;2.90;;;2.70;;
11996;SDS011;6058;48.704;9.474;2022-08-24T05:03:49;3.03;;;2.83;;
11996;SDS011;6058;48.704;9.474;2022-08-24T05:06:31;3.00;;;2.77;;
11996;SDS011;6058;48.704;9.474;2022-08-24T05:08:58;3.37;;;2.90;;
11996;SDS011;6058;48.704;9.474;2022-08-24T05:11:26;4.17;;;3.17;;
11996;SDS011;6058;48.704;9.474;2022-08-24T05:13:53;4.67;;;2.90;;
11996;SDS011;6058;48.704;9.474;2022-08-24T05:16:21;3.83;;;2.77;;
11996;SDS011;6058;48.704;9.474;2022-08-24T05:18:48;3.33;;;2.63;;
11996;SDS011;6058;48.704;9.474;2022-08-24T05:21:16;3.00;;;2.70;;
11996;SDS011;6058;48.704;9.474;2022-08-24T05:23:45;2.70;;;1.83;;
11996;SDS011;6058;48.704;9.474;2022-08-24T05:26:13;2.67;;;2.47;;
11996;SDS011;6058;48.704;9.474;2022-08-24T05:28:40;2.97;;;2.50;;
11996;SDS011;6058;48.704;9.474;2022-08-24T05:31:08;3.40;;;2.67;;
11996;SDS011;6058;48.704;9.474;2022-08-24T05:33:36;3.30;;;3.00;;
11996;SDS011;6058;48.704;9.474;2022-08-24T05:36:03;3.60;;;3.03;;
11996;SDS011;6058;48.704;9.474;2022-08-24T05:38:40;3.77;;;2.73;;
11996;SDS011;6058;48.704;9.474;2022-08-24T05:41:08;2.83;;;2.63;;
11996;SDS011;6058;48.704;9.474;2022-08-24T05:43:35;2.87;;;2.67;;
11996;SDS011;6058;48.704;9.474;2022-08-24T05:46:03;2.90;;;2.70;;
11996;SDS011;6058;48.704;9.474;2022-08-24T05:48:30;3.17;;;2.87;;
11996;SDS011;6058;48.704;9.474;2022-08-24T05:50:58;3.10;;;2.77;;
11996;SDS011;6058;48.704;9.474;2022-08-24T05:53:25;3.20;;;3.00;;
11996;SDS011;6058;48.704;9.474;2022-08-24T05:55:53;3.90;;;2.73;;
11996;SDS011;6058;48.704;9.474;2022-08-24T05:58:21;3.47;;;2.73;;
11996;SDS011;6058;48.704;9.474;2022-08-24T06:00:48;4.90;;;3.03;;
11996;SDS011;6058;48.704;9.474;2022-08-24T06:03:15;6.87;;;3.03;;
11996;SDS011;6058;48.704;9.474;2022-08-24T06:05:43;3.17;;;2.97;;
11996;SDS011;6058;48.704;9.474;2022-08-24T06:08:13;4.47;;;3.40;;
11996;SDS011;6058;48.704;9.474;2022-08-24T06:10:41;3.00;;;2.80;;
11996;SDS011;6058;48.704;9.474;2022-08-24T06:13:08;5.13;;;2.90;;
11996;SDS011;6058;48.704;9.474;2022-08-24T06:15:37;3.87;;;3.27;;
11996;SDS011;6058;48.704;9.474;2022-08-24T06:18:05;3.17;;;2.90;;
11996;SDS011;6058;48.704;9.474;2022-08-24T06:20:35;3.67;;;3.17;;
11996;SDS011;6058;48.704;9.474;2022-08-24T06:23:03;3.23;;;2.93;;
11996;SDS011;6058;48.704;9.474;2022-08-24T06:25:30;3.73;;;3.43;;
11996;SDS011;6058;48.704;9.474;2022-08-24T06:28:15;5.53;;;3.20;;
11996;SDS011;6058;48.704;9.474;2022-08-24T06:30:44;3.47;;;3.03;;
11996;SDS011;6058;48.704;9.474;2022-08-24T06:33:11;5.60;;;3.73;;
11996;SDS011;6058;48.704;9.474;2022-08-24T06:35:38;3.50;;;3.20;;
11996;SDS011;6058;48.704;9.474;2022-08-24T06:38:06;4.47;;;3.43;;
11996;SDS011;6058;48.704;9.474;2022-08-24T06:40:34;4.53;;;3.83;;
11996;SDS011;6058;48.704;9.474;2022-08-24T06:43:01;3.47;;;3.07;;
11996;SDS011;6058;48.704;9.474;2022-08-24T06:45:28;3.53;;;3.23;;
11996;SDS011;6058;48.704;9.474;2022-08-24T06:47:58;3.50;;;2.97;;
11996;SDS011;6058;48.704;9.474;2022-08-24T06:50:25;3.53;;;3.23;;
11996;SDS011;6058;48.704;9.474;2022-08-24T06:52:52;4.53;;;3.67;;
11996;SDS011;6058;48.704;9.474;2022-08-24T06:55:19;4.20;;;3.50;;
11996;SDS011;6058;48.704;9.474;2022-08-24T06:57:46;3.90;;;3.30;;
11996;SDS011;6058;48.704;9.474;2022-08-24T07:00:14;3.63;;;3.33;;
11996;SDS011;6058;48.704;9.474;2022-08-24T07:02:41;4.00;;;3.70;;
11996;SDS011;6058;48.704;9.474;2022-08-24T07:05:09;4.00;;;3.40;;
11996;SDS011;6058;48.704;9.474;2022-08-24T07:07:37;3.30;;;3.10;;
11996;SDS011;6058;48.704;9.474;2022-08-24T07:10:04;4.20;;;3.20;;
11996;SDS011;6058;48.704;9.474;2022-08-24T07:12:32;3.42;;;3.13;;
11996;SDS011;6058;48.704;9.474;2022-08-24T07:15:00;3.73;;;3.03;;
11996;SDS011;6058;48.704;9.474;2022-08-24T07:17:27;4.78;;;2.95;;
11996;SDS011;6058;48.704;9.474;2022-08-24T07:19:54;3.10;;;2.85;;
11996;SDS011;6058;48.704;9.474;2022-08-24T07:22:23;3.85;;;3.55;;
11996;SDS011;6058;48.704;9.474;2022-08-24T07:24:50;3.85;;;3.20;;
11996;SDS011;6058;48.704;9.474;2022-08-24T07:27:17;4.70;;;3.60;;
11996;SDS011;6058;48.704;9.474;2022-08-24T07:29:45;3.38;;;3.08;;
11996;SDS011;6058;48.704;9.474;2022-08-24T07:32:12;4.15;;;3.42;;
11996;SDS011;6058;48.704;9.474;2022-08-24T07:34:39;3.42;;;2.90;;
11996;SDS011;6058;48.704;9.474;2022-08-24T07:37:06;6.03;;;3.33;;
11996;SDS011;6058;48.704;9.474;2022-08-24T07:39:35;3.55;;;3.22;;
11996;SDS011;6058;48.704;9.474;2022-08-24T07:42:02;3.63;;;3.15;;
11996;SDS011;6058;48.704;9.474;2022-08-24T07:44:29;4.32;;;3.28;;
11996;SDS011;6058;48.704;9.474;2022-08-24T07:46:57;3.40;;;3.10;;
11996;SDS011;6058;48.704;9.474;2022-08-24T07:49:24;5.60;;;3.03;;
11996;SDS011;6058;48.704;9.474;2022-08-24T07:51:51;4.45;;;3.05;;
11996;SDS011;6058;48.704;9.474;2022-08-24T07:54:19;4.30;;;3.10;;
11996;SDS011;6058;48.704;9.474;2022-08-24T07:56:47;3.35;;;2.78;;
11996;SDS011;6058;48.704;9.474;2022-08-24T07:59:15;3.83;;;3.03;;
11996;SDS011;6058;48.704;9.474;2022-08-24T08:01:42;3.15;;;2.85;;
11996;SDS011;6058;48.704;9.474;2022-08-24T08:04:09;3.60;;;2.78;;
11996;SDS011;6058;48.704;9.474;2022-08-24T08:06:39;3.10;;;2.38;;
11996;SDS011;6058;48.704;9.474;2022-08-24T08:09:06;2.53;;;2.33;;
11996;SDS011;6058;48.704;9.474;2022-08-24T08:11:34;4.15;;;2.53;;
11996;SDS011;6058;48.704;9.474;2022-08-24T08:14:02;4.78;;;2.70;;
11996;SDS011;6058;48.704;9.474;2022-08-24T08:16:29;4.38;;;2.45;;
11996;SDS011;6058;48.704;9.474;2022-08-24T08:18:57;2.50;;;2.30;;
11996;SDS011;6058;48.704;9.474;2022-08-24T08:21:24;2.97;;;2.40;;
11996;SDS011;6058;48.704;9.474;2022-08-24T08:24:09;5.78;;;2.85;;
11996;SDS011;6058;48.704;9.474;2022-08-24T08:26:43;3.85;;;2.78;;
11996;SDS011;6058;48.704;9.474;2022-08-24T08:29:12;2.53;;;2.35;;
11996;SDS011;6058;48.704;9.474;2022-08-24T08:31:39;3.85;;;2.50;;
11996;SDS011;6058;48.704;9.474;2022-08-24T08:34:07;2.90;;;2.60;;
11996;SDS011;6058;48.704;9.474;2022-08-24T08:36:35;2.35;;;2.05;;
11996;SDS011;6058;48.704;9.474;2022-08-24T08:39:04;3.95;;;2.17;;
11996;SDS011;6058;48.704;9.474;2022-08-24T08:41:45;3.97;;;2.30;;
11996;SDS011;6058;48.704;9.474;2022-08-24T08:44:16;3.63;;;1.92;;
11996;SDS011;6058;48.704;9.474;2022-08-24T08:46:48;1.70;;;1.60;;
11996;SDS011;6058;48.704;9.474;2022-08-24T08:49:23;4.45;;;2.13;;
11996;SDS011;6058;48.704;9.474;2022-08-24T08:52:00;2.15;;;1.88;;
11996;SDS011;6058;48.704;9.474;2022-08-24T08:54:36;2.28;;;1.75;;
11996;SDS011;6058;48.704;9.474;2022-08-24T08:57:08;1.70;;;1.60;;
11996;SDS011;6058;48.704;9.474;2022-08-24T08:59:43;3.22;;;1.80;;
11996;SDS011;6058;48.704;9.474;2022-08-24T09:02:21;4.88;;;1.92;;
11996;SDS011;6058;48.704;9.474;2022-08-24T09:04:53;2.00;;;1.55;;
11996;SDS011;6058;48.704;9.474;2022-08-24T09:07:30;3.83;;;1.80;;
11996;SDS011;6058;48.704;9.474;2022-08-24T09:10:02;2.33;;;1.73;;
11996;SDS011;6058;48.704;9.474;2022-08-24T09:12:39;2.45;;;1.88;;
11996;SDS011;6058;48.704;9.474;2022-08-24T09:18:00;2.42;;;1.40;;
11996;SDS011;6058;48.704;9.474;2022-08-24T09:20:49;1.60;;;1.50;;
11996;SDS011;6058;48.704;9.474;2022-08-24T09:23:24;2.65;;;1.50;;
11996;SDS011;6058;48.704;9.474;2022-08-24T09:25:57;1.50;;;1.48;;
11996;SDS011;6058;48.704;9.474;2022-08-24T09:28:33;2.38;;;1.50;;
11996;SDS011;6058;48.704;9.474;2022-08-24T09:31:09;2.40;;;2.20;;
11996;SDS011;6058;48.704;9.474;2022-08-24T09:33:49;1.70;;;1.60;;
11996;SDS011;6058;48.704;9.474;2022-08-24T09:36:24;1.75;;;1.65;;
11996;SDS011;6058;48.704;9.474;2022-08-24T09:39:04;1.67;;;1.58;;
11996;SDS011;6058;48.704;9.474;2022-08-24T09:44:37;2.40;;;2.17;;
11996;SDS011;6058;48.704;9.474;2022-08-24T09:47:26;2.05;;;1.85;;
11996;SDS011;6058;48.704;9.474;2022-08-24T09:52:56;1.33;;;1.27;;
11996;SDS011;6058;48.704;9.474;2022-08-24T09:55:34;1.67;;;1.40;;
11996;SDS011;6058;48.704;9.474;2022-08-24T09:58:11;1.60;;;1.50;;
11996;SDS011;6058;48.704;9.474;2022-08-24T10:00:43;3.08;;;1.90;;
11996;SDS011;6058;48.704;9.474;2022-08-24T10:03:14;2.13;;;1.60;;
11996;SDS011;6058;48.704;9.474;2022-08-24T10:05:51;1.50;;;1.40;;
11996;SDS011;6058;48.704;9.474;2022-08-24T10:08:27;3.38;;;1.50;;
11996;SDS011;6058;48.704;9.474;2022-08-24T10:11:00;1.75;;;1.40;;
11996;SDS011;6058;48.704;9.474;2022-08-24T10:13:31;1.42;;;1.33;;
11996;SDS011;6058;48.704;9.474;2022-08-24T10:16:06;1.67;;;1.40;;
11996;SDS011;6058;48.704;9.474;2022-08-24T10:18:39;1.80;;;1.70;;
11996;SDS011;6058;48.704;9.474;2022-08-24T10:21:17;1.83;;;1.45;;
11996;SDS011;6058;48.704;9.474;2022-08-24T10:23:52;2.40;;;1.50;;
11996;SDS011;6058;48.704;9.474;2022-08-24T10:26:26;1.50;;;1.40;;
11996;SDS011;6058;48.704;9.474;2022-08-24T10:29:04;1.55;;;1.27;;
11996;SDS011;6058;48.704;9.474;2022-08-24T10:31:39;1.40;;;1.30;;
11996;SDS011;6058;48.704;9.474;2022-08-24T10:34:16;1.95;;;1.20;;
11996;SDS011;6058;48.704;9.474;2022-08-24T10:36:54;2.30;;;2.10;;
11996;SDS011;6058;48.704;9.474;2022-08-24T10:39:45;2.33;;;2.10;;
11996;SDS011;6058;48.704;9.474;2022-08-24T10:42:32;3.20;;;1.40;;
11996;SDS011;6058;48.704;9.474;2022-08-24T10:45:26;1.50;;;1.40;;
11996;SDS011;6058;48.704;9.474;2022-08-24T10:48:01;1.95;;;1.40;;
11996;SDS011;6058;48.704;9.474;2022-08-24T10:50:34;1.20;;;1.20;;
11996;SDS011;6058;48.704;9.474;2022-08-24T10:53:09;2.28;;;1.50;;
11996;SDS011;6058;48.704;9.474;2022-08-24T10:55:40;1.77;;;1.50;;
11996;SDS011;6058;48.704;9.474;2022-08-24T11:00:53;1.50;;;1.40;;
11996;SDS011;6058;48.704;9.474;2022-08-24T11:03:21;1.90;;;1.80;;
11996;SDS011;6058;48.704;9.474;2022-08-24T11:05:52;3.47;;;1.45;;
11996;SDS011;6058;48.704;9.474;2022-08-24T11:08:20;1.30;;;1.30;;
11996;SDS011;6058;48.704;9.474;2022-08-24T11:11:03;2.65;;;1.45;;
11996;SDS011;6058;48.704;9.474;2022-08-24T11:13:31;1.10;;;1.10;;
11996;SDS011;6058;48.704;9.474;2022-08-24T11:15:59;1.55;;;1.13;;
11996;SDS011;6058;48.704;9.474;2022-08-24T11:18:31;0.90;;;0.90;;
11996;SDS011;6058;48.704;9.474;2022-08-24T11:21:13;0.80;;;0.80;;
11996;SDS011;6058;48.704;9.474;2022-08-24T11:23:45;1.00;;;1.00;;
11996;SDS011;6058;48.704;9.474;2022-08-24T11:26:19;0.88;;;0.88;;
11996;SDS011;6058;48.704;9.474;2022-08-24T11:28:49;0.90;;;0.90;;
11996;SDS011;6058;48.704;9.474;2022-08-24T11:31:19;4.90;;;1.30;;
11996;SDS011;6058;48.704;9.474;2022-08-24T11:33:47;1.00;;;1.00;;
11996;SDS011;6058;48.704;9.474;2022-08-24T11:36:16;2.00;;;1.10;;
11996;SDS011;6058;48.704;9.474;2022-08-24T11:38:43;1.17;;;1.17;;
11996;SDS011;6058;48.704;9.474;2022-08-24T11:41:12;1.00;;;1.00;;
11996;SDS011;6058;48.704;9.474;2022-08-24T11:43:46;0.98;;;0.85;;
11996;SDS011;6058;48.704;9.474;2022-08-24T11:46:22;1.00;;;1.00;;
11996;SDS011;6058;48.704;9.474;2022-08-24T11:48:55;0.90;;;0.90;;
11996;SDS011;6058;48.704;9.474;2022-08-24T11:51:27;1.17;;;1.15;;
11996;SDS011;6058;48.704;9.474;2022-08-24T11:53:57;1.30;;;1.20;;
11996;SDS011;6058;48.704;9.474;2022-08-24T11:56:29;1.80;;;1.15;;
11996;SDS011;6058;48.704;9.474;2022-08-24T11:59:00;1.10;;;1.10;;
11996;SDS011;6058;48.704;9.474;2022-08-24T12:01:31;1.00;;;1.00;;
11996;SDS011;6058;48.704;9.474;2022-08-24T12:04:03;1.70;;;1.23;;
11996;SDS011;6058;48.704;9.474;2022-08-24T12:06:35;1.33;;;1.17;;
11996;SDS011;6058;48.704;9.474;2022-08-24T12:09:08;1.80;;;1.20;;
11996;SDS011;6058;48.704;9.474;2022-08-24T12:11:41;1.23;;;1.13;;
11996;SDS011;6058;48.704;9.474;2022-08-24T12:14:13;1.50;;;1.10;;
11996;SDS011;6058;48.704;9.474;2022-08-24T12:16:44;0.95;;;0.95;;
11996;SDS011;6058;48.704;9.474;2022-08-24T12:19:14;2.75;;;1.27;;
11996;SDS011;6058;48.704;9.474;2022-08-24T12:21:44;1.73;;;1.10;;
11996;SDS011;6058;48.704;9.474;2022-08-24T12:24:13;1.40;;;1.30;;
11996;SDS011;6058;48.704;9.474;2022-08-24T12:26:41;1.17;;;1.17;;
11996;SDS011;6058;48.704;9.474;2022-08-24T12:29:11;1.08;;;1.08;;
11996;SDS011;6058;48.704;9.474;2022-08-24T12:31:41;1.30;;;1.20;;
11996;SDS011;6058;48.704;9.474;2022-08-24T12:34:11;1.40;;;1.40;;
11996;SDS011;6058;48.704;9.474;2022-08-24T12:36:44;2.05;;;1.33;;
11996;SDS011;6058;48.704;9.474;2022-08-24T12:39:13;1.42;;;1.33;;
11996;SDS011;6058;48.704;9.474;2022-08-24T12:41:46;1.48;;;1.38;;
11996;SDS011;6058;48.704;9.474;2022-08-24T12:44:16;1.85;;;1.40;;
11996;SDS011;6058;48.704;9.474;2022-08-24T12:46:44;1.30;;;1.20;;
11996;SDS011;6058;48.704;9.474;2022-08-24T12:49:18;1.58;;;1.48;;
11996;SDS011;6058;48.704;9.474;2022-08-24T12:51:53;1.50;;;1.38;;
11996;SDS011;6058;48.704;9.474;2022-08-24T12:54:31;1.35;;;1.25;;
11996;SDS011;6058;48.704;9.474;2022-08-24T12:59:48;1.10;;;1.10;;
11996;SDS011;6058;48.704;9.474;2022-08-24T13:02:26;1.75;;;1.60;;
11996;SDS011;6058;48.704;9.474;2022-08-24T13:04:55;1.70;;;1.60;;
11996;SDS011;6058;48.704;9.474;2022-08-24T13:07:27;1.70;;;1.60;;
11996;SDS011;6058;48.704;9.474;2022-08-24T13:10:03;2.00;;;1.90;;
11996;SDS011;6058;48.704;9.474;2022-08-24T13:15:22;1.63;;;1.52;;
11996;SDS011;6058;48.704;9.474;2022-08-24T13:17:53;1.60;;;1.50;;
11996;SDS011;6058;48.704;9.474;2022-08-24T13:20:21;7.13;;;1.70;;
11996;SDS011;6058;48.704;9.474;2022-08-24T13:23:01;1.65;;;1.55;;
11996;SDS011;6058;48.704;9.474;2022-08-24T13:28:26;1.98;;;1.83;;
11996;SDS011;6058;48.704;9.474;2022-08-24T13:33:41;1.60;;;1.50;;
11996;SDS011;6058;48.704;9.474;2022-08-24T13:39:03;2.25;;;1.60;;
11996;SDS011;6058;48.704;9.474;2022-08-24T13:44:17;1.55;;;1.45;;
11996;SDS011;6058;48.704;9.474;2022-08-24T13:46:48;5.55;;;1.80;;
11996;SDS011;6058;48.704;9.474;2022-08-24T13:49:20;1.70;;;1.60;;
11996;SDS011;6058;48.704;9.474;2022-08-24T13:51:51;3.38;;;1.52;;
11996;SDS011;6058;48.704;9.474;2022-08-24T13:54:21;3.78;;;1.67;;
11996;SDS011;6058;48.704;9.474;2022-08-24T13:57:02;3.05;;;1.80;;
11996;SDS011;6058;48.704;9.474;2022-08-24T13:59:39;1.73;;;1.63;;
11996;SDS011;6058;48.704;9.474;2022-08-24T14:02:10;1.80;;;1.63;;
11996;SDS011;6058;48.704;9.474;2022-08-24T14:04:52;1.50;;;1.38;;
11996;SDS011;6058;48.704;9.474;2022-08-24T14:07:21;1.70;;;1.60;;
11996;SDS011;6058;48.704;9.474;2022-08-24T14:10:00;1.80;;;1.70;;
11996;SDS011;6058;48.704;9.474;2022-08-24T14:12:47;2.95;;;1.58;;
11996;SDS011;6058;48.704;9.474;2022-08-24T14:15:21;2.35;;;1.60;;
11996;SDS011;6058;48.704;9.474;2022-08-24T14:17:49;1.80;;;1.70;;
11996;SDS011;6058;48.704;9.474;2022-08-24T14:23:21;1.60;;;1.50;;
11996;SDS011;6058;48.704;9.474;2022-08-24T14:25:50;2.33;;;2.13;;
11996;SDS011;6058;48.704;9.474;2022-08-24T14:28:21;1.92;;;1.50;;
11996;SDS011;6058;48.704;9.474;2022-08-24T14:30:58;4.15;;;1.85;;
11996;SDS011;6058;48.704;9.474;2022-08-24T14:33:41;2.38;;;2.13;;
11996;SDS011;6058;48.704;9.474;2022-08-24T14:36:17;1.83;;;1.73;;
11996;SDS011;6058;48.704;9.474;2022-08-24T14:38:54;1.65;;;1.55;;
11996;SDS011;6058;48.704;9.474;2022-08-24T14:41:29;5.15;;;2.17;;
11996;SDS011;6058;48.704;9.474;2022-08-24T14:44:02;1.63;;;1.50;;
11996;SDS011;6058;48.704;9.474;2022-08-24T14:46:32;1.60;;;1.50;;
11996;SDS011;6058;48.704;9.474;2022-08-24T14:49:06;1.45;;;1.40;;
11996;SDS011;6058;48.704;9.474;2022-08-24T14:51:37;1.40;;;1.30;;
11996;SDS011;6058;48.704;9.474;2022-08-24T14:54:13;1.40;;;1.30;;
11996;SDS011;6058;48.704;9.474;2022-08-24T14:56:46;1.80;;;1.70;;
11996;SDS011;6058;48.704;9.474;2022-08-24T14:59:18;2.40;;;1.80;;
11996;SDS011;6058;48.704;9.474;2022-08-24T15:01:48;2.28;;;1.60;;
11996;SDS011;6058;48.704;9.474;2022-08-24T15:04:20;2.20;;;2.00;;
11996;SDS011;6058;48.704;9.474;2022-08-24T15:06:51;2.78;;;1.63;;
11996;SDS011;6058;48.704;9.474;2022-08-24T15:09:22;1.33;;;1.23;;
11996;SDS011;6058;48.704;9.474;2022-08-24T15:11:50;3.03;;;1.77;;
11996;SDS011;6058;48.704;9.474;2022-08-24T15:14:20;2.20;;;1.80;;
11996;SDS011;6058;48.704;9.474;2022-08-24T15:16:48;2.05;;;1.45;;
11996;SDS011;6058;48.704;9.474;2022-08-24T15:19:18;1.60;;;1.50;;
11996;SDS011;6058;48.704;9.474;2022-08-24T15:21:48;1.40;;;1.30;;
11996;SDS011;6058;48.704;9.474;2022-08-24T15:24:23;1.65;;;1.55;;
11996;SDS011;6058;48.704;9.474;2022-08-24T15:26:57;1.85;;;1.75;;
11996;SDS011;6058;48.704;9.474;2022-08-24T15:29:27;2.72;;;1.50;;
11996;SDS011;6058;48.704;9.474;2022-08-24T15:32:00;4.05;;;1.42;;
11996;SDS011;6058;48.704;9.474;2022-08-24T15:34:31;2.10;;;1.70;;
11996;SDS011;6058;48.704;9.474;2022-08-24T15:36:59;2.45;;;1.40;;
11996;SDS011;6058;48.704;9.474;2022-08-24T15:39:28;1.10;;;1.10;;
11996;SDS011;6058;48.704;9.474;2022-08-24T15:41:55;1.75;;;1.40;;
11996;SDS011;6058;48.704;9.474;2022-08-24T15:44:25;1.48;;;1.38;;
11996;SDS011;6058;48.704;9.474;2022-08-24T15:46:53;1.45;;;1.45;;
11996;SDS011;6058;48.704;9.474;2022-08-24T15:49:22;1.52;;;1.42;;